Time;durP1;ratioP1;P1;durP2;ratioP2;P2;SDS_P1;SDS_P2;PMS_P1;PMS_P2;Temp;Humidity;BMP_temperature;BMP_pressure;BME280_temperature;BME280_humidity;BME280_pressure;Samples;Min_cycle;Max_cycle;Signal;HPM_P1;HPM_P2
2021/08/04 00:00:49;;;;;;;1.95;1.30;;;;;;;;;;5049347;28;20049;-86
2021/08/04 00:03:16;;;;;;;2.53;1.77;;;;;;;;;;5049330;28;20052;-87
2021/08/04 00:05:42;;;;;;;4.90;1.23;;;;;;;;;;5049498;28;20126;-87
2021/08/04 00:08:10;;;;;;;7.18;1.75;;;;;;;;;;5049352;28;20053;-86
2021/08/04 00:10:37;;;;;;;2.50;1.25;;;;;;;;;;5049649;28;20059;-86
2021/08/04 00:13:03;;;;;;;2.33;1.65;;;;;;;;;;5049179;28;20059;-86
2021/08/04 00:15:30;;;;;;;6.45;3.25;;;;;;;;;;5049596;28;20111;-86
2021/08/04 00:17:56;;;;;;;1.70;0.77;;;;;;;;;;5049710;28;20052;-86
2021/08/04 00:20:23;;;;;;;3.83;1.42;;;;;;;;;;5052532;28;20057;-87
2021/08/04 00:22:50;;;;;;;4.45;0.98;;;;;;;;;;5053310;28;20053;-86
2021/08/04 00:25:18;;;;;;;5.80;1.92;;;;;;;;;;5053247;28;20542;-86
2021/08/04 00:27:44;;;;;;;2.30;1.02;;;;;;;;;;5052944;28;20065;-86
2021/08/04 00:30:11;;;;;;;3.33;1.52;;;;;;;;;;5052746;28;20045;-86
2021/08/04 00:32:38;;;;;;;2.05;1.20;;;;;;;;;;5052945;28;20060;-85
2021/08/04 00:35:05;;;;;;;2.65;1.52;;;;;;;;;;5052850;28;20053;-86
2021/08/04 00:37:31;;;;;;;2.05;1.45;;;;;;;;;;5052755;28;20575;-87
2021/08/04 00:39:58;;;;;;;2.70;1.73;;;;;;;;;;5052968;28;20049;-87
2021/08/04 00:42:26;;;;;;;6.75;1.27;;;;;;;;;;5052494;28;20263;-86
2021/08/04 00:44:53;;;;;;;6.43;1.75;;;;;;;;;;5052821;28;20072;-86
2021/08/04 00:47:20;;;;;;;2.72;1.42;;;;;;;;;;5052669;28;20067;-86
2021/08/04 00:49:46;;;;;;;1.50;1.08;;;;;;;;;;5052645;28;20060;-87
2021/08/04 00:52:13;;;;;;;1.67;1.02;;;;;;;;;;5052680;28;20056;-86
2021/08/04 00:54:40;;;;;;;7.78;2.08;;;;;;;;;;5052375;28;20060;-86
2021/08/04 00:57:06;;;;;;;2.63;1.80;;;;;;;;;;5052426;28;20135;-86
2021/08/04 00:59:35;;;;;;;3.45;1.90;;;;;;;;;;5052371;28;20416;-86
2021/08/04 01:02:04;;;;;;;2.97;1.15;;;;;;;;;;5052628;28;20507;-86
2021/08/04 01:04:31;;;;;;;2.35;2.00;;;;;;;;;;5052300;28;20385;-86
2021/08/04 01:07:01;;;;;;;6.40;1.70;;;;;;;;;;5052169;28;20048;-85
2021/08/04 01:09:30;;;;;;;2.42;1.42;;;;;;;;;;5052609;28;20045;-86
2021/08/04 01:11:58;;;;;;;2.75;1.38;;;;;;;;;;5051934;28;20056;-85
2021/08/04 01:14:26;;;;;;;2.00;1.63;;;;;;;;;;5051868;28;20044;-86
2021/08/04 01:16:54;;;;;;;1.67;0.90;;;;;;;;;;5052016;28;20044;-86
2021/08/04 01:19:27;;;;;;;2.33;1.45;;;;;;;;;;5051924;28;20088;-86
2021/08/04 01:21:55;;;;;;;1.98;1.27;;;;;;;;;;5052157;28;20056;-86
2021/08/04 01:24:25;;;;;;;3.33;1.67;;;;;;;;;;5051851;28;20052;-86
2021/08/04 01:26:53;;;;;;;2.03;1.30;;;;;;;;;;5051687;28;20049;-86
2021/08/04 01:29:20;;;;;;;1.60;0.73;;;;;;;;;;5051699;28;20052;-86
2021/08/04 01:31:49;;;;;;;2.03;1.05;;;;;;;;;;5051681;28;20049;-86
2021/08/04 01:34:16;;;;;;;3.55;1.90;;;;;;;;;;5051613;28;20057;-86
2021/08/04 01:36:42;;;;;;;7.35;2.05;;;;;;;;;;5055330;28;20059;-86
2021/08/04 01:39:09;;;;;;;3.88;2.35;;;;;;;;;;5057359;28;20092;-86
2021/08/04 01:41:37;;;;;;;2.13;1.27;;;;;;;;;;5052837;28;20076;-86
2021/08/04 01:44:06;;;;;;;2.95;1.85;;;;;;;;;;5051730;28;20275;-86
2021/08/04 01:46:33;;;;;;;2.20;1.15;;;;;;;;;;5051848;28;20110;-86
2021/08/04 01:49:01;;;;;;;8.10;1.48;;;;;;;;;;5051751;28;20050;-87
2021/08/04 01:51:28;;;;;;;2.05;1.52;;;;;;;;;;5051261;28;20504;-86
2021/08/04 01:53:54;;;;;;;6.10;2.10;;;;;;;;;;5051349;28;20049;-86
2021/08/04 01:56:21;;;;;;;3.53;2.80;;;;;;;;;;5051160;28;20499;-86
2021/08/04 01:58:48;;;;;;;3.85;1.98;;;;;;;;;;5050994;28;20053;-86
2021/08/04 02:01:16;;;;;;;4.30;1.58;;;;;;;;;;5051520;28;20053;-86
2021/08/04 02:03:42;;;;;;;2.60;1.60;;;;;;;;;;5051411;28;20056;-87
2021/08/04 02:06:12;;;;;;;8.05;1.50;;;;;;;;;;5051209;28;20496;-86
2021/08/04 02:08:41;;;;;;;3.30;1.45;;;;;;;;;;5051335;28;20067;-86
2021/08/04 02:11:13;;;;;;;2.95;1.25;;;;;;;;;;5050813;28;20053;-87
2021/08/04 02:13:43;;;;;;;3.58;1.67;;;;;;;;;;5051069;28;20084;-86
2021/08/04 02:16:14;;;;;;;5.57;2.22;;;;;;;;;;5051379;28;20135;-86
2021/08/04 02:18:46;;;;;;;1.75;1.17;;;;;;;;;;5050942;28;20053;-86
2021/08/04 02:21:13;;;;;;;1.98;1.35;;;;;;;;;;5050969;28;20060;-86
2021/08/04 02:23:42;;;;;;;5.85;1.63;;;;;;;;;;5050851;28;20059;-85
2021/08/04 02:26:12;;;;;;;2.85;1.77;;;;;;;;;;5050857;28;20060;-86
2021/08/04 02:28:40;;;;;;;3.08;1.65;;;;;;;;;;5050610;28;20496;-85
2021/08/04 02:31:08;;;;;;;3.38;1.65;;;;;;;;;;5050752;28;20775;-86
2021/08/04 02:33:35;;;;;;;3.70;1.67;;;;;;;;;;5050421;28;20056;-85
2021/08/04 02:36:03;;;;;;;2.92;1.23;;;;;;;;;;5050374;28;20064;-85
2021/08/04 02:38:30;;;;;;;2.80;1.67;;;;;;;;;;5050540;28;20071;-85
2021/08/04 02:40:56;;;;;;;2.13;1.48;;;;;;;;;;5050418;28;20052;-85
2021/08/04 02:43:23;;;;;;;2.70;1.23;;;;;;;;;;5050260;28;20099;-85
2021/08/04 02:45:50;;;;;;;4.60;2.22;;;;;;;;;;5050579;28;20045;-85
2021/08/04 02:48:18;;;;;;;2.30;1.38;;;;;;;;;;5050570;28;20408;-85
2021/08/04 02:50:45;;;;;;;3.13;1.30;;;;;;;;;;5046355;28;20057;-85
2021/08/04 02:53:15;;;;;;;2.72;1.25;;;;;;;;;;5048183;28;20055;-85
2021/08/04 02:55:42;;;;;;;10.18;2.40;;;;;;;;;;5048990;28;20049;-85
2021/08/04 02:58:09;;;;;;;4.65;1.65;;;;;;;;;;5050175;28;20053;-86
2021/08/04 03:00:35;;;;;;;3.10;1.55;;;;;;;;;;5050218;28;20377;-86
2021/08/04 03:03:02;;;;;;;3.78;2.33;;;;;;;;;;5049962;28;20052;-86
2021/08/04 03:05:28;;;;;;;6.22;2.17;;;;;;;;;;5049930;28;20056;-86
2021/08/04 03:07:55;;;;;;;2.95;1.70;;;;;;;;;;5050131;28;20072;-86
2021/08/04 03:10:23;;;;;;;5.13;2.20;;;;;;;;;;5049834;28;20052;-86
2021/08/04 03:12:50;;;;;;;2.22;1.60;;;;;;;;;;5050087;28;20052;-86
2021/08/04 03:15:16;;;;;;;4.72;1.75;;;;;;;;;;5050001;28;20053;-86
2021/08/04 03:17:43;;;;;;;5.75;2.85;;;;;;;;;;5049853;28;20514;-86
2021/08/04 03:20:10;;;;;;;4.47;2.85;;;;;;;;;;5049459;28;20103;-86
2021/08/04 03:22:37;;;;;;;4.40;2.15;;;;;;;;;;5049909;28;20048;-88
2021/08/04 03:27:53;;;;;;;4.50;2.78;;;;;;;;;;5049115;28;20512;-87
2021/08/04 03:30:20;;;;;;;4.80;1.83;;;;;;;;;;5049617;28;20053;-88
2021/08/04 03:32:48;;;;;;;5.10;2.00;;;;;;;;;;5050455;28;20130;-88
2021/08/04 03:35:14;;;;;;;5.35;2.40;;;;;;;;;;5049425;28;20053;-87
2021/08/04 03:37:41;;;;;;;3.30;2.30;;;;;;;;;;5049705;28;20526;-86
2021/08/04 03:40:08;;;;;;;11.65;3.50;;;;;;;;;;5049792;28;20079;-84
2021/08/04 03:42:35;;;;;;;5.43;2.90;;;;;;;;;;5049873;28;20049;-86
2021/08/04 03:45:04;;;;;;;5.55;2.65;;;;;;;;;;5049906;28;20059;-88
2021/08/04 03:47:30;;;;;;;6.88;3.08;;;;;;;;;;5049765;28;20103;-88
2021/08/04 03:49:57;;;;;;;5.50;2.45;;;;;;;;;;5049609;28;20060;-85
2021/08/04 03:52:23;;;;;;;5.45;2.38;;;;;;;;;;5049613;28;20083;-85
2021/08/04 03:54:50;;;;;;;8.52;2.63;;;;;;;;;;5052170;28;20053;-85
2021/08/04 03:57:17;;;;;;;9.05;3.88;;;;;;;;;;5056016;28;20056;-86
2021/08/04 03:59:43;;;;;;;16.90;3.88;;;;;;;;;;5073431;28;20044;-87
2021/08/04 04:02:11;;;;;;;2.75;1.88;;;;;;;;;;5073699;28;20504;-87
2021/08/04 04:04:38;;;;;;;10.68;3.05;;;;;;;;;;5073622;28;20063;-85
2021/08/04 04:07:05;;;;;;;6.88;2.70;;;;;;;;;;5073559;28;20078;-88
2021/08/04 04:09:34;;;;;;;8.32;2.65;;;;;;;;;;5073835;28;20083;-89
2021/08/04 04:12:11;;;;;;;6.63;4.55;;;;;;;;;;5073408;28;20076;-91
2021/08/04 04:14:38;;;;;;;7.25;3.67;;;;;;;;;;5073352;28;20047;-86
2021/08/04 04:17:05;;;;;;;14.88;2.90;;;;;;;;;;5073317;28;20055;-86
2021/08/04 04:19:32;;;;;;;8.00;2.75;;;;;;;;;;5073119;28;20040;-86
2021/08/04 04:21:59;;;;;;;8.57;3.05;;;;;;;;;;5073140;28;20501;-86
2021/08/04 04:24:26;;;;;;;6.30;3.45;;;;;;;;;;5073011;28;20436;-86
2021/08/04 04:26:52;;;;;;;8.13;3.50;;;;;;;;;;5073129;28;20111;-87
2021/08/04 04:29:19;;;;;;;6.78;4.13;;;;;;;;;;5072933;28;20048;-87
2021/08/04 04:31:45;;;;;;;9.57;2.92;;;;;;;;;;5072918;28;20612;-87
2021/08/04 04:34:12;;;;;;;8.75;3.08;;;;;;;;;;5073118;28;20577;-87
2021/08/04 04:36:40;;;;;;;6.88;3.40;;;;;;;;;;5072677;28;20045;-87
2021/08/04 04:39:06;;;;;;;6.57;3.30;;;;;;;;;;5077645;28;20112;-87
2021/08/04 04:41:33;;;;;;;8.65;4.85;;;;;;;;;;5080071;28;20491;-87
2021/08/04 04:43:59;;;;;;;6.00;3.20;;;;;;;;;;5072485;28;20499;-86
2021/08/04 04:46:26;;;;;;;8.68;4.57;;;;;;;;;;5072437;28;20101;-86
2021/08/04 04:48:52;;;;;;;7.80;3.50;;;;;;;;;;5072890;28;20068;-86
2021/08/04 04:51:19;;;;;;;13.38;4.10;;;;;;;;;;5072447;28;20044;-86
2021/08/04 04:53:47;;;;;;;4.78;3.38;;;;;;;;;;5072568;28;20506;-88
2021/08/04 04:56:14;;;;;;;6.90;4.22;;;;;;;;;;5072337;28;20045;-86
2021/08/04 04:58:40;;;;;;;5.47;3.00;;;;;;;;;;5072266;28;20053;-86
2021/08/04 05:01:07;;;;;;;4.15;2.10;;;;;;;;;;5072475;28;20094;-86
2021/08/04 05:03:33;;;;;;;5.05;3.05;;;;;;;;;;5072300;28;20052;-86
2021/08/04 05:06:00;;;;;;;3.72;2.35;;;;;;;;;;5071839;28;20049;-86
2021/08/04 05:08:26;;;;;;;6.03;2.65;;;;;;;;;;5072380;28;20441;-87
2021/08/04 05:10:54;;;;;;;3.10;1.73;;;;;;;;;;5072164;28;20495;-86
2021/08/04 05:13:21;;;;;;;2.58;1.67;;;;;;;;;;5072221;28;20408;-86
2021/08/04 05:15:47;;;;;;;3.63;2.13;;;;;;;;;;5072104;28;20063;-87
2021/08/04 05:18:14;;;;;;;3.38;2.42;;;;;;;;;;5072399;28;20048;-87
2021/08/04 05:20:41;;;;;;;3.63;1.42;;;;;;;;;;5072185;28;20055;-87
2021/08/04 05:23:07;;;;;;;4.20;2.63;;;;;;;;;;5072038;28;20052;-86
2021/08/04 05:25:34;;;;;;;5.63;3.10;;;;;;;;;;5072179;28;20059;-87
2021/08/04 05:28:03;;;;;;;5.65;3.53;;;;;;;;;;5071899;28;20049;-89
2021/08/04 05:30:30;;;;;;;8.23;3.33;;;;;;;;;;5072575;28;20165;-89
2021/08/04 05:32:57;;;;;;;8.38;2.22;;;;;;;;;;5072065;28;20071;-89
2021/08/04 05:35:24;;;;;;;11.23;3.67;;;;;;;;;;5071715;28;20049;-89
2021/08/04 05:37:52;;;;;;;4.03;2.42;;;;;;;;;;5071994;28;20052;-89
2021/08/04 05:40:20;;;;;;;4.93;2.55;;;;;;;;;;5071526;28;20380;-89
2021/08/04 05:42:46;;;;;;;6.97;3.17;;;;;;;;;;5071158;28;20136;-89
2021/08/04 05:45:15;;;;;;;4.95;2.33;;;;;;;;;;5071935;28;20055;-90
2021/08/04 05:47:41;;;;;;;5.00;2.42;;;;;;;;;;5071768;28;20127;-89
2021/08/04 05:50:08;;;;;;;5.47;3.28;;;;;;;;;;5071285;28;20135;-89
2021/08/04 05:52:35;;;;;;;7.18;3.63;;;;;;;;;;5071080;28;20423;-89
2021/08/04 05:55:01;;;;;;;4.55;2.83;;;;;;;;;;5071072;28;20518;-88
2021/08/04 05:57:28;;;;;;;3.42;2.25;;;;;;;;;;5071400;28;20044;-87
2021/08/04 05:59:55;;;;;;;3.63;2.17;;;;;;;;;;5071400;28;20757;-87
2021/08/04 06:02:23;;;;;;;4.55;3.22;;;;;;;;;;5071595;28;20048;-87
2021/08/04 06:04:50;;;;;;;3.13;1.67;;;;;;;;;;5071385;28;20145;-87
2021/08/04 06:07:16;;;;;;;3.63;1.52;;;;;;;;;;5071308;28;20557;-87
2021/08/04 06:09:43;;;;;;;7.35;2.05;;;;;;;;;;5071377;28;20049;-88
2021/08/04 06:12:10;;;;;;;4.32;2.70;;;;;;;;;;5071215;28;20148;-85
2021/08/04 06:14:36;;;;;;;5.80;3.03;;;;;;;;;;5070987;28;20080;-84
2021/08/04 06:17:03;;;;;;;6.00;2.83;;;;;;;;;;5070217;28;20054;-85
2021/08/04 06:19:31;;;;;;;2.00;1.30;;;;;;;;;;5070670;28;20053;-86
2021/08/04 06:21:59;;;;;;;5.80;2.13;;;;;;;;;;5070740;28;20049;-91
2021/08/04 06:24:26;;;;;;;2.97;2.25;;;;;;;;;;5070739;28;20052;-87
2021/08/04 06:26:54;;;;;;;5.22;1.88;;;;;;;;;;5070651;28;20053;-90
2021/08/04 06:29:21;;;;;;;7.25;3.47;;;;;;;;;;5070660;28;20114;-90
2021/08/04 06:31:49;;;;;;;3.72;1.77;;;;;;;;;;5071619;28;20141;-90
2021/08/04 06:34:25;;;;;;;10.40;1.48;;;;;;;;;;5071161;28;20044;-93
2021/08/04 06:37:06;;;;;;;3.25;1.55;;;;;;;;;;5071480;28;20044;-92
2021/08/04 06:39:40;;;;;;;1.70;1.13;;;;;;;;;;5070234;28;20044;-91
2021/08/04 06:42:19;;;;;;;3.22;1.75;;;;;;;;;;5070282;28;20053;-91
2021/08/04 06:48:00;;;;;;;3.83;1.58;;;;;;;;;;5072149;28;20059;-94
2021/08/04 06:51:01;;;;;;;;;;;;;;;;;;;;;
2021/08/04 06:56:24;;;;;;;4.00;2.20;;;;;;;;;;5070746;28;20681;-91
2021/08/04 06:58:59;;;;;;;5.63;1.67;;;;;;;;;;5067722;28;20045;-91
2021/08/04 07:01:26;;;;;;;;;;;;;;;;;;5068300;28;20048;-89
2021/08/04 07:03:58;;;;;;;5.78;1.60;;;;;;;;;;5069028;28;19951;-92
2021/08/04 07:06:34;;;;;;;2.83;2.13;;;;;;;;;;5069863;28;20705;-92
2021/08/04 07:09:11;;;;;;;4.70;1.45;;;;;;;;;;5069565;28;20048;-91
2021/08/04 07:11:41;;;;;;;3.25;1.73;;;;;;;;;;5069925;28;20118;-90
2021/08/04 07:14:15;;;;;;;1.67;1.00;;;;;;;;;;5069414;28;20056;-92
2021/08/04 07:16:43;;;;;;;3.97;1.88;;;;;;;;;;5069827;28;20545;-90
2021/08/04 07:19:17;;;;;;;4.32;1.25;;;;;;;;;;5070254;28;20063;-91
2021/08/04 07:21:51;;;;;;;3.50;1.85;;;;;;;;;;5070076;28;20052;-92
2021/08/04 07:24:22;;;;;;;1.48;1.02;;;;;;;;;;5069813;28;20507;-90
2021/08/04 07:26:52;;;;;;;1.95;0.88;;;;;;;;;;5069404;28;20491;-90
2021/08/04 07:29:25;;;;;;;1.90;0.73;;;;;;;;;;5070215;28;20489;-91
2021/08/04 07:31:59;;;;;;;3.00;1.42;;;;;;;;;;5069728;28;20148;-92
2021/08/04 07:34:28;;;;;;;2.92;1.20;;;;;;;;;;5069220;28;20052;-91
2021/08/04 07:37:03;;;;;;;1.73;1.13;;;;;;;;;;5069188;28;20473;-90
2021/08/04 07:39:40;;;;;;;1.50;0.80;;;;;;;;;;5069752;28;20060;-91
2021/08/04 07:45:04;;;;;;;2.97;1.05;;;;;;;;;;5048139;28;20109;-92
2021/08/04 07:47:41;;;;;;;4.28;0.88;;;;;;;;;;5069649;28;20113;-93
2021/08/04 07:50:11;;;;;;;1.67;0.90;;;;;;;;;;5069434;28;20052;-91
2021/08/04 07:52:48;;;;;;;3.20;0.93;;;;;;;;;;5069520;28;20051;-91
2021/08/04 07:55:27;;;;;;;2.95;1.30;;;;;;;;;;5068842;28;20048;-91
2021/08/04 07:58:01;;;;;;;0.75;0.40;;;;;;;;;;5069626;28;20500;-93
2021/08/04 08:00:33;;;;;;;2.60;1.42;;;;;;;;;;5070549;28;20057;-92
2021/08/04 08:03:13;;;;;;;2.78;0.60;;;;;;;;;;5070003;28;20106;-91
2021/08/04 08:08:57;;;;;;;3.30;0.90;;;;;;;;;;5066960;28;20052;-95
2021/08/04 08:11:45;;;;;;;;;;;;;;;;;;;;;
2021/08/04 08:14:18;;;;;;;1.23;0.73;;;;;;;;;;5069208;28;20052;-91
2021/08/04 08:16:53;;;;;;;4.10;1.50;;;;;;;;;;5068802;28;20403;-91
2021/08/04 08:19:27;;;;;;;1.98;0.82;;;;;;;;;;5069803;28;20048;-92
2021/08/04 08:22:01;;;;;;;2.63;0.70;;;;;;;;;;5069037;28;20457;-92
2021/08/04 08:24:32;;;;;;;4.80;1.70;;;;;;;;;;5068575;28;20049;-90
2021/08/04 08:27:10;;;;;;;4.88;1.75;;;;;;;;;;5069271;28;20289;-91
2021/08/04 08:29:44;;;;;;;0.75;0.57;;;;;;;;;;5069928;28;20048;-91
2021/08/04 08:32:16;;;;;;;4.93;1.38;;;;;;;;;;5068769;28;20135;-91
2021/08/04 08:34:49;;;;;;;2.40;0.40;;;;;;;;;;5068953;28;20051;-91
2021/08/04 08:37:24;;;;;;;3.78;1.23;;;;;;;;;;5069488;28;20063;-92
2021/08/04 08:39:55;;;;;;;;;;;;;;;;;;5069771;28;20053;-92
2021/08/04 08:42:28;;;;;;;4.68;0.70;;;;;;;;;;5072104;28;19920;-91
2021/08/04 08:45:00;;;;;;;1.67;0.88;;;;;;;;;;5072576;28;20048;-91
2021/08/04 08:47:29;;;;;;;1.48;0.80;;;;;;;;;;5072383;28;20499;-90
2021/08/04 08:50:02;;;;;;;1.90;0.63;;;;;;;;;;5072035;28;20478;-93
2021/08/04 08:52:31;;;;;;;1.65;0.73;;;;;;;;;;5072346;28;20056;-92
2021/08/04 08:55:00;;;;;;;3.97;0.85;;;;;;;;;;5072450;28;20139;-91
2021/08/04 08:57:36;;;;;;;2.58;1.23;;;;;;;;;;5072167;28;20048;-93
2021/08/04 09:00:08;;;;;;;1.02;0.60;;;;;;;;;;5072017;28;20044;-91
2021/08/04 09:02:41;;;;;;;1.88;0.80;;;;;;;;;;5072479;28;20060;-91
2021/08/04 09:05:09;;;;;;;2.60;1.58;;;;;;;;;;5072121;28;20135;-89
2021/08/04 09:07:37;;;;;;;2.15;0.55;;;;;;;;;;5072617;28;20105;-89
2021/08/04 09:10:20;;;;;;;2.53;0.93;;;;;;;;;;5072452;28;20472;-89
2021/08/04 09:12:50;;;;;;;1.25;0.75;;;;;;;;;;5071758;28;20464;-91
2021/08/04 09:15:24;;;;;;;4.38;1.00;;;;;;;;;;5072298;28;20110;-88
2021/08/04 09:18:02;;;;;;;1.97;1.00;;;;;;;;;;5072209;28;20045;-91
2021/08/04 09:20:36;;;;;;;4.15;1.77;;;;;;;;;;5072241;28;20056;-91
2021/08/04 09:23:24;;;;;;;2.75;1.65;;;;;;;;;;5070270;28;20384;-96
2021/08/04 09:26:12;;;;;;;1.45;0.40;;;;;;;;;;5072848;28;20414;-95
2021/08/04 09:29:04;;;;;;;1.45;0.75;;;;;;;;;;5074419;28;20068;-91
2021/08/04 09:34:42;;;;;;;1.10;0.50;;;;;;;;;;5062038;28;20056;-92
2021/08/04 09:37:20;;;;;;;2.05;0.75;;;;;;;;;;5072803;28;20400;-92
2021/08/04 09:40:02;;;;;;;2.67;0.60;;;;;;;;;;5072479;28;20469;-93
2021/08/04 09:42:46;;;;;;;1.33;0.75;;;;;;;;;;5068945;28;20054;-91
2021/08/04 09:45:16;;;;;;;1.67;0.40;;;;;;;;;;5072069;28;20048;-89
2021/08/04 09:48:02;;;;;;;1.58;0.45;;;;;;;;;;5070998;28;20041;-94
2021/08/04 09:50:49;;;;;;;2.72;1.15;;;;;;;;;;5069611;28;20056;-94
2021/08/04 09:53:31;;;;;;;0.80;0.50;;;;;;;;;;5069899;28;20044;-92
2021/08/04 09:56:14;;;;;;;2.25;1.35;;;;;;;;;;5069229;28;20389;-93
2021/08/04 09:58:49;;;;;;;1.80;0.80;;;;;;;;;;5071748;28;20053;-91
2021/08/04 10:01:23;;;;;;;1.27;0.80;;;;;;;;;;5071284;28;20048;-90
2021/08/04 10:04:02;;;;;;;2.08;0.70;;;;;;;;;;5071469;28;20399;-89
2021/08/04 10:06:36;;;;;;;2.25;0.95;;;;;;;;;;5070653;28;20051;-93
2021/08/04 10:09:10;;;;;;;1.65;1.08;;;;;;;;;;5069558;28;20074;-89
2021/08/04 10:37:25;;;;;;;2.40;1.05;;;;;;;;;;5149470;27;20752;-81
2021/08/04 10:39:52;;;;;;;2.50;1.08;;;;;;;;;;5149555;27;20047;-81
2021/08/04 10:42:20;;;;;;;5.95;1.85;;;;;;;;;;5149488;27;20132;-81
2021/08/04 10:44:46;;;;;;;3.58;1.30;;;;;;;;;;5149835;27;20039;-80
2021/08/04 10:47:26;;;;;;;3.83;1.52;;;;;;;;;;5149438;27;20076;-80
2021/08/04 10:50:07;;;;;;;2.28;1.27;;;;;;;;;;5149424;27;20112;-80
2021/08/04 10:52:35;;;;;;;2.40;1.17;;;;;;;;;;5158198;27;20100;-81
2021/08/04 10:55:03;;;;;;;1.95;1.52;;;;;;;;;;5153526;27;20043;-81
2021/08/04 10:57:33;;;;;;;1.85;0.90;;;;;;;;;;5149088;27;20477;-81
2021/08/04 11:00:14;;;;;;;3.03;1.60;;;;;;;;;;5147473;27;20077;-80
2021/08/04 11:02:41;;;;;;;7.47;1.10;;;;;;;;;;5138837;27;20045;-83
2021/08/04 11:05:08;;;;;;;4.43;1.30;;;;;;;;;;5138096;27;20058;-81
2021/08/04 11:07:36;;;;;;;3.50;1.92;;;;;;;;;;5144533;27;20047;-83
2021/08/04 11:10:05;;;;;;;1.60;0.77;;;;;;;;;;5139943;27;20050;-83
2021/08/04 11:12:44;;;;;;;2.42;0.90;;;;;;;;;;5133572;27;20054;-83
2021/08/04 11:15:28;;;;;;;3.70;0.95;;;;;;;;;;5137191;27;20074;-81
2021/08/04 11:17:59;;;;;;;3.40;1.77;;;;;;;;;;5130873;27;20096;-81
2021/08/04 11:20:25;;;;;;;2.13;0.98;;;;;;;;;;5128458;28;20048;-80
2021/08/04 11:22:54;;;;;;;2.53;1.00;;;;;;;;;;5133219;27;20062;-79
2021/08/04 11:25:26;;;;;;;1.98;0.95;;;;;;;;;;5153181;27;20490;-84
2021/08/04 11:28:03;;;;;;;3.05;1.20;;;;;;;;;;5154950;27;20143;-79
2021/08/04 11:30:30;;;;;;;1.45;0.88;;;;;;;;;;5156296;27;20493;-79
2021/08/04 11:33:11;;;;;;;2.60;1.05;;;;;;;;;;5149759;27;20066;-82
2021/08/04 11:35:38;;;;;;;3.08;1.10;;;;;;;;;;5148119;27;20069;-83
2021/08/04 11:38:06;;;;;;;5.90;2.00;;;;;;;;;;5136231;27;20047;-81
2021/08/04 11:40:32;;;;;;;3.75;1.58;;;;;;;;;;5134565;27;20046;-81
2021/08/04 11:42:59;;;;;;;1.17;0.70;;;;;;;;;;5134752;27;20047;-80
2021/08/04 11:45:25;;;;;;;1.83;1.38;;;;;;;;;;5134773;27;20047;-83
2021/08/04 11:47:52;;;;;;;3.28;0.90;;;;;;;;;;5134464;27;20047;-82
2021/08/04 11:50:18;;;;;;;3.20;1.48;;;;;;;;;;5134464;27;20043;-81
2021/08/04 11:52:45;;;;;;;1.15;0.70;;;;;;;;;;5134226;27;20054;-81
2021/08/04 11:55:15;;;;;;;2.28;1.45;;;;;;;;;;5134186;27;20051;-79
2021/08/04 11:57:43;;;;;;;2.13;0.82;;;;;;;;;;5134488;27;20047;-82
2021/08/04 12:00:10;;;;;;;3.50;1.20;;;;;;;;;;5118158;27;20085;-83
2021/08/04 12:02:38;;;;;;;4.05;1.42;;;;;;;;;;5113602;28;20062;-82
2021/08/04 12:05:06;;;;;;;2.85;1.25;;;;;;;;;;5113439;28;20043;-79
2021/08/04 12:07:33;;;;;;;1.80;0.65;;;;;;;;;;5113364;28;20494;-78
2021/08/04 12:10:00;;;;;;;1.80;0.73;;;;;;;;;;5113528;28;20039;-77
2021/08/04 12:12:31;;;;;;;2.15;1.33;;;;;;;;;;5113167;28;20505;-80
2021/08/04 12:14:57;;;;;;;4.28;1.67;;;;;;;;;;5113138;28;20050;-78
2021/08/04 12:17:25;;;;;;;1.50;0.98;;;;;;;;;;5113099;28;20097;-78
2021/08/04 12:19:52;;;;;;;2.35;0.80;;;;;;;;;;5113509;28;20047;-78
2021/08/04 12:22:20;;;;;;;1.52;0.68;;;;;;;;;;5127249;27;20382;-79
2021/08/04 12:24:48;;;;;;;2.90;0.50;;;;;;;;;;5134062;27;20051;-80
2021/08/04 12:27:15;;;;;;;1.77;0.85;;;;;;;;;;5133517;27;20486;-82
2021/08/04 12:29:43;;;;;;;1.65;0.68;;;;;;;;;;5133681;27;20046;-80
2021/08/04 12:32:17;;;;;;;1.08;0.40;;;;;;;;;;5133420;27;20455;-80
2021/08/04 12:34:45;;;;;;;1.67;0.80;;;;;;;;;;5133678;27;20051;-79
2021/08/04 12:37:11;;;;;;;1.10;0.90;;;;;;;;;;5133483;27;20055;-77
2021/08/04 12:39:38;;;;;;;1.55;1.15;;;;;;;;;;5133425;27;20048;-79
2021/08/04 12:42:04;;;;;;;1.25;0.30;;;;;;;;;;5133363;27;20043;-79
2021/08/04 12:44:31;;;;;;;1.40;0.50;;;;;;;;;;5133241;27;20051;-79
2021/08/04 12:47:07;;;;;;;0.80;0.40;;;;;;;;;;5133136;27;20547;-78
2021/08/04 12:49:33;;;;;;;2.72;0.93;;;;;;;;;;5132074;27;20509;-80
2021/08/04 12:52:00;;;;;;;1.13;0.77;;;;;;;;;;5133027;27;20055;-82
2021/08/04 12:54:28;;;;;;;1.20;0.90;;;;;;;;;;5133172;27;20051;-77
2021/08/04 12:56:55;;;;;;;1.45;1.02;;;;;;;;;;5132771;27;20444;-79
2021/08/04 12:59:22;;;;;;;0.95;0.40;;;;;;;;;;5132876;27;20064;-77
2021/08/04 13:01:50;;;;;;;2.10;0.95;;;;;;;;;;5133152;27;20062;-77
2021/08/04 13:04:18;;;;;;;0.85;0.47;;;;;;;;;;5133033;27;20054;-78
2021/08/04 13:06:52;;;;;;;1.25;0.60;;;;;;;;;;5132740;27;20051;-78
2021/08/04 13:09:19;;;;;;;2.35;0.68;;;;;;;;;;5132665;27;20049;-80
2021/08/04 13:11:45;;;;;;;1.50;0.63;;;;;;;;;;5132545;27;20122;-81
2021/08/04 13:14:12;;;;;;;2.03;0.90;;;;;;;;;;5132541;27;20043;-77
2021/08/04 13:16:39;;;;;;;1.00;0.70;;;;;;;;;;5132714;27;20055;-76
2021/08/04 13:19:18;;;;;;;3.22;0.65;;;;;;;;;;5132883;27;20039;-78
2021/08/04 13:21:58;;;;;;;1.70;0.40;;;;;;;;;;5123966;27;20047;-79
2021/08/04 13:24:29;;;;;;;2.22;0.77;;;;;;;;;;5112026;28;20056;-78
2021/08/04 13:26:55;;;;;;;5.28;1.95;;;;;;;;;;5111993;28;20062;-77
2021/08/04 13:29:28;;;;;;;2.00;0.70;;;;;;;;;;5112266;28;20527;-79
2021/08/04 13:31:56;;;;;;;1.10;0.68;;;;;;;;;;5112063;28;20140;-77
2021/08/04 13:34:24;;;;;;;0.95;0.63;;;;;;;;;;5112011;28;20112;-75
2021/08/04 13:36:52;;;;;;;0.85;0.38;;;;;;;;;;5111544;28;20058;-78
2021/08/04 13:39:19;;;;;;;0.93;0.40;;;;;;;;;;5112098;28;20051;-75
2021/08/04 13:41:45;;;;;;;6.22;1.02;;;;;;;;;;5111838;28;20100;-75
2021/08/04 13:44:12;;;;;;;2.40;0.82;;;;;;;;;;5111909;28;20096;-75
2021/08/04 13:46:38;;;;;;;2.70;1.30;;;;;;;;;;5111891;28;20112;-77
2021/08/04 13:49:05;;;;;;;11.57;2.25;;;;;;;;;;5111647;28;20047;-76
2021/08/04 13:51:33;;;;;;;2.15;0.52;;;;;;;;;;5111978;28;20051;-77
2021/08/04 13:54:00;;;;;;;1.83;0.98;;;;;;;;;;5131561;27;20046;-77
2021/08/04 13:56:26;;;;;;;1.10;0.30;;;;;;;;;;5132239;27;20047;-76
2021/08/04 13:58:53;;;;;;;3.80;0.77;;;;;;;;;;5132225;27;20043;-76
2021/08/04 14:01:19;;;;;;;0.95;0.65;;;;;;;;;;5128790;27;20047;-76
2021/08/04 14:03:46;;;;;;;1.85;1.17;;;;;;;;;;5132085;27;20054;-77
2021/08/04 14:06:12;;;;;;;1.52;0.57;;;;;;;;;;5131786;27;20039;-77
2021/08/04 14:08:41;;;;;;;0.98;0.57;;;;;;;;;;5131902;27;20039;-76
2021/08/04 14:11:07;;;;;;;2.83;1.35;;;;;;;;;;5131858;27;20531;-77
2021/08/04 14:13:34;;;;;;;2.63;1.08;;;;;;;;;;5131915;27;20562;-77
2021/08/04 14:16:00;;;;;;;2.45;0.73;;;;;;;;;;5131710;27;20066;-75
2021/08/04 14:18:27;;;;;;;1.50;0.40;;;;;;;;;;5131827;27;20051;-75
2021/08/04 14:20:53;;;;;;;1.30;0.60;;;;;;;;;;5131663;27;20047;-77
2021/08/04 14:23:20;;;;;;;2.63;1.23;;;;;;;;;;5131958;27;20063;-75
2021/08/04 14:25:47;;;;;;;2.00;0.30;;;;;;;;;;5131874;28;20044;-79
2021/08/04 14:28:14;;;;;;;1.83;0.52;;;;;;;;;;5131709;28;20039;-75
2021/08/04 14:30:40;;;;;;;1.85;0.80;;;;;;;;;;5131673;28;20043;-76
2021/08/04 14:33:07;;;;;;;3.63;1.55;;;;;;;;;;5131671;28;20051;-76
2021/08/04 14:35:33;;;;;;;2.47;0.95;;;;;;;;;;5131735;28;20055;-76
2021/08/04 14:38:00;;;;;;;2.13;0.80;;;;;;;;;;5131844;28;20066;-77
2021/08/04 14:40:26;;;;;;;0.82;0.55;;;;;;;;;;5131820;28;20040;-78
2021/08/04 14:42:54;;;;;;;0.82;0.35;;;;;;;;;;5131620;28;20051;-76
2021/08/04 14:45:21;;;;;;;1.80;0.73;;;;;;;;;;5131605;28;20047;-78
2021/08/04 14:47:47;;;;;;;1.85;0.85;;;;;;;;;;5131346;28;20047;-78
2021/08/04 14:50:14;;;;;;;1.00;0.47;;;;;;;;;;5131728;28;20047;-77
2021/08/04 14:52:40;;;;;;;1.67;0.70;;;;;;;;;;5131644;28;20051;-76
2021/08/04 14:55:08;;;;;;;3.58;1.67;;;;;;;;;;5131653;28;20095;-78
2021/08/04 14:57:37;;;;;;;4.30;1.48;;;;;;;;;;5131377;28;20059;-76
2021/08/04 15:00:06;;;;;;;2.70;1.23;;;;;;;;;;5131248;28;20055;-77
2021/08/04 15:02:32;;;;;;;1.58;1.17;;;;;;;;;;5131678;28;20051;-77
2021/08/04 15:04:59;;;;;;;2.53;0.98;;;;;;;;;;5131458;28;20039;-77
2021/08/04 15:07:25;;;;;;;1.10;0.45;;;;;;;;;;5131418;28;20116;-78
2021/08/04 15:09:52;;;;;;;1.88;1.35;;;;;;;;;;5131491;28;20066;-79
2021/08/04 15:12:18;;;;;;;1.67;0.70;;;;;;;;;;5132733;27;20043;-75
2021/08/04 15:14:45;;;;;;;3.42;0.88;;;;;;;;;;5129911;27;20051;-77
2021/08/04 15:17:13;;;;;;;5.45;1.50;;;;;;;;;;5135036;27;20043;-77
2021/08/04 15:19:40;;;;;;;2.22;1.00;;;;;;;;;;5135011;27;20482;-77
2021/08/04 15:22:06;;;;;;;2.97;1.48;;;;;;;;;;5135188;27;20050;-77
2021/08/04 15:24:33;;;;;;;0.98;0.50;;;;;;;;;;5135059;27;20043;-77
2021/08/04 15:27:00;;;;;;;5.55;1.52;;;;;;;;;;5135409;27;20422;-77
2021/08/04 15:29:27;;;;;;;1.55;1.05;;;;;;;;;;5134714;27;20039;-76
2021/08/04 15:31:54;;;;;;;1.25;0.60;;;;;;;;;;5134725;27;20043;-78
2021/08/04 15:34:25;;;;;;;1.00;0.70;;;;;;;;;;5134039;27;20094;-78
2021/08/04 15:36:52;;;;;;;2.13;0.50;;;;;;;;;;5133048;27;20055;-79
2021/08/04 15:39:18;;;;;;;1.50;0.82;;;;;;;;;;5135289;27;20039;-79
2021/08/04 15:41:45;;;;;;;3.13;1.00;;;;;;;;;;5134163;27;20065;-78